Time;durP1;ratioP1;P1;durP2;ratioP2;P2;SDS_P1;SDS_P2;PMS_P1;PMS_P2;Temp;Humidity;BMP_temperature;BMP_pressure;BME280_temperature;BME280_humidity;BME280_pressure;Samples;Min_cycle;Max_cycle;Signal;HPM_P1;HPM_P2
2022/08/22 00:00:22;;;;;;;7.80;6.82;;;14.50;99.90;;;15.38;88.36;97787.47;5234593;28;20307;-64
2022/08/22 00:03:20;;;;;;;7.45;6.70;;;14.50;99.90;;;15.41;88.12;97785.00;5238373;28;20769;-64
2022/08/22 00:06:09;;;;;;;7.50;6.82;;;14.60;99.90;;;15.35;88.41;97784.78;5232658;28;20193;-65
2022/08/22 00:08:59;;;;;;;7.65;6.95;;;14.50;99.90;;;15.29;88.06;97781.16;5231452;28;20201;-64
2022/08/22 00:11:46;;;;;;;7.30;6.60;;;14.40;99.90;;;15.25;88.51;97778.41;5229275;28;20220;-65
2022/08/22 00:14:26;;;;;;;7.03;6.50;;;14.40;99.90;;;15.24;87.94;97786.94;5230827;28;20241;-65
2022/08/22 00:17:17;;;;;;;7.50;6.78;;;14.40;99.90;;;15.22;88.24;97784.34;5229566;28;20319;-65
2022/08/22 00:19:58;;;;;;;7.55;6.65;;;14.40;99.90;;;15.22;88.79;97779.19;5232021;28;20201;-65
2022/08/22 00:22:42;;;;;;;7.93;7.15;;;14.30;99.90;;;15.23;88.44;97778.34;5231070;28;20320;-65
2022/08/22 00:25:44;;;;;;;8.30;7.40;;;14.30;99.90;;;15.16;89.43;97778.94;5231350;28;20288;-64
2022/08/22 00:28:25;;;;;;;7.30;6.45;;;14.30;99.90;;;15.05;88.93;97778.56;5232869;28;20208;-65
2022/08/22 00:31:07;;;;;;;7.25;6.55;;;14.20;99.90;;;15.01;88.38;97778.34;5234327;28;20311;-64
2022/08/22 00:33:51;;;;;;;6.95;6.28;;;14.10;99.90;;;15.02;88.23;97777.53;5232242;28;20240;-65
2022/08/22 00:36:31;;;;;;;7.57;6.97;;;14.10;99.90;;;14.94;88.26;97772.13;5235102;28;20201;-64
2022/08/22 00:39:14;;;;;;;7.90;7.30;;;14.10;99.90;;;14.96;87.81;97774.72;5233008;28;20204;-65
2022/08/22 00:42:23;;;;;;;7.40;6.70;;;14.10;99.90;;;14.91;87.71;97772.00;5233667;28;20538;-64
2022/08/22 00:45:38;;;;;;;7.88;7.10;;;14.00;99.90;;;14.91;88.52;97769.41;5233683;28;20199;-65
2022/08/22 00:48:42;;;;;;;7.22;6.50;;;14.10;99.90;;;14.83;88.07;97769.13;5238529;28;20204;-64
2022/08/22 00:52:05;;;;;;;7.47;6.78;;;14.00;99.90;;;14.90;88.40;97767.66;5232718;28;20208;-66
2022/08/22 00:55:05;;;;;;;7.78;7.03;;;14.00;99.90;;;14.93;88.61;97772.03;5235995;28;20216;-64
2022/08/22 00:58:08;;;;;;;7.93;7.28;;;14.10;99.90;;;14.93;89.10;97772.91;5234078;28;20212;-64
2022/08/22 01:00:52;;;;;;;7.68;7.00;;;14.10;99.90;;;14.92;89.63;97773.75;5227683;28;20200;-64
2022/08/22 01:03:52;;;;;;;8.52;7.65;;;14.10;99.90;;;14.83;89.93;97779.41;5233486;28;20228;-65
2022/08/22 01:06:40;;;;;;;8.13;7.32;;;14.00;99.90;;;14.77;89.68;97781.75;5230385;28;20201;-64
2022/08/22 01:09:31;;;;;;;7.40;6.80;;;13.90;99.90;;;14.75;90.52;97780.81;5226681;28;20197;-66
2022/08/22 01:12:35;;;;;;;7.30;6.70;;;13.90;99.90;;;14.83;89.73;97779.41;5228252;28;20220;-64
2022/08/22 01:15:15;;;;;;;8.38;7.05;;;14.00;99.90;;;14.76;90.82;97782.53;5231999;28;20567;-64
2022/08/22 01:18:07;;;;;;;7.72;7.03;;;13.90;99.90;;;14.65;90.82;97783.84;5232003;28;20204;-64
2022/08/22 01:21:34;;;;;;;7.32;6.72;;;13.80;99.90;;;14.62;89.82;97778.53;5230732;28;20204;-66
2022/08/22 01:28:31;;;;;;;7.93;7.25;;;13.60;99.90;;;14.45;90.29;97790.72;5231707;28;20228;-64
2022/08/22 01:32:23;;;;;;;7.90;7.20;;;13.50;99.90;;;14.38;90.82;97788.69;5216016;28;20220;-65
2022/08/22 01:35:35;;;;;;;7.63;6.88;;;13.50;99.90;;;14.35;90.24;97794.59;5234940;28;20212;-64
2022/08/22 01:38:58;;;;;;;7.45;6.75;;;13.50;99.90;;;14.35;90.95;97788.59;5236227;28;20296;-65
2022/08/22 01:42:14;;;;;;;7.95;7.25;;;13.50;99.90;;;14.30;91.07;97795.22;5235179;28;20217;-64
2022/08/22 01:45:23;;;;;;;7.95;7.10;;;13.50;99.90;;;14.35;89.42;97788.59;5202655;28;20231;-64
2022/08/22 01:48:06;;;;;;;7.22;6.63;;;13.50;99.90;;;14.19;89.94;97787.06;5240296;28;20204;-65
2022/08/22 01:50:47;;;;;;;9.13;6.97;;;13.40;99.90;;;14.27;89.96;97784.81;5235971;28;20232;-65
2022/08/22 01:53:28;;;;;;;7.20;6.60;;;13.40;99.90;;;14.25;90.86;97787.34;5237856;28;20270;-65
2022/08/22 01:56:11;;;;;;;7.30;6.80;;;13.50;99.90;;;14.27;90.96;97790.81;5235424;28;20238;-64
2022/08/22 01:58:56;;;;;;;7.65;6.95;;;13.50;99.90;;;14.30;91.56;97790.06;5239789;28;20223;-66
2022/08/22 02:01:52;;;;;;;8.93;8.13;;;13.50;99.90;;;14.33;91.47;97787.63;5234328;28;20711;-65
2022/08/22 02:04:39;;;;;;;8.65;7.68;;;13.50;99.90;;;14.28;91.60;97784.88;5235651;28;20302;-65
2022/08/22 02:07:21;;;;;;;8.23;7.45;;;13.50;99.90;;;14.27;91.60;97785.69;5240067;28;20204;-64
2022/08/22 02:10:14;;;;;;;8.00;7.35;;;13.40;99.90;;;14.22;91.79;97787.19;5234762;28;20672;-65
2022/08/22 02:13:02;;;;;;;8.45;7.50;;;13.40;99.90;;;14.23;91.98;97788.97;5239763;28;20237;-64
2022/08/22 02:15:50;;;;;;;7.55;6.85;;;13.40;99.90;;;14.22;91.07;97782.03;5234178;28;20200;-65
2022/08/22 02:18:31;;;;;;;8.38;7.72;;;13.40;99.90;;;14.13;90.80;97787.66;5236775;28;20211;-65
2022/08/22 02:21:16;;;;;;;9.15;8.27;;;13.30;99.90;;;14.07;91.22;97781.41;5240070;28;20192;-65
2022/08/22 02:23:57;;;;;;;8.18;7.45;;;13.20;99.90;;;14.01;91.10;97786.28;5240464;28;20216;-64
2022/08/22 02:26:45;;;;;;;9.35;7.75;;;13.20;99.90;;;13.94;90.91;97780.03;5234908;28;20747;-64
2022/08/22 02:29:30;;;;;;;7.53;6.93;;;13.10;99.90;;;13.96;91.24;97781.84;5234047;28;20287;-64
2022/08/22 02:32:17;;;;;;;7.80;7.20;;;13.20;99.90;;;14.05;91.01;97777.88;5237008;28;20225;-65
2022/08/22 02:35:02;;;;;;;8.43;7.63;;;13.20;99.90;;;14.00;91.12;97781.97;5237840;28;20244;-64
2022/08/22 02:37:50;;;;;;;8.50;7.60;;;13.20;99.90;;;14.03;91.88;97769.25;5234477;28;20295;-65
2022/08/22 02:40:35;;;;;;;8.07;7.45;;;13.30;99.90;;;14.06;91.50;97767.69;5233954;28;20209;-66
2022/08/22 02:43:19;;;;;;;8.68;7.80;;;13.30;99.90;;;13.98;92.33;97769.94;5230230;28;20224;-64
2022/08/22 02:46:04;;;;;;;7.80;7.20;;;13.30;99.90;;;14.07;91.33;97771.13;5234852;28;20223;-65
2022/08/22 02:48:48;;;;;;;8.15;7.45;;;13.20;99.90;;;14.05;91.93;97772.75;5229246;28;20228;-65
2022/08/22 02:51:34;;;;;;;8.60;7.80;;;13.30;99.90;;;13.98;92.92;97772.50;5234680;28;20235;-65
2022/08/22 02:54:19;;;;;;;9.00;8.05;;;13.30;99.90;;;14.04;91.82;97776.16;5236371;28;20688;-65
2022/08/22 02:57:03;;;;;;;8.85;8.07;;;13.30;99.90;;;14.04;92.56;97779.59;5234577;28;20282;-66
2022/08/22 03:00:11;;;;;;;8.15;7.55;;;13.30;99.90;;;14.04;91.98;97778.72;5235134;28;20295;-65
2022/08/22 03:03:16;;;;;;;8.45;7.75;;;13.20;99.90;;;14.01;92.18;97776.88;5238303;28;20336;-65
2022/08/22 03:06:00;;;;;;;8.25;7.53;;;13.20;99.90;;;14.03;92.09;97775.28;5233301;28;20216;-65
2022/08/22 03:08:40;;;;;;;9.10;8.30;;;13.20;99.90;;;14.00;92.60;97770.00;5232072;28;20603;-66
2022/08/22 03:11:28;;;;;;;9.25;8.55;;;13.20;99.90;;;13.97;92.83;97770.75;5234065;28;20247;-65
2022/08/22 03:14:21;;;;;;;8.35;7.50;;;13.20;99.90;;;13.95;92.38;97767.22;5235896;28;20251;-65
2022/08/22 03:17:03;;;;;;;8.52;7.72;;;13.20;99.90;;;13.91;92.95;97765.34;5235876;28;20286;-65
2022/08/22 03:19:55;;;;;;;8.98;8.00;;;13.10;99.90;;;13.83;93.01;97761.59;5236590;28;20200;-65
2022/08/22 03:22:42;;;;;;;8.15;7.35;;;13.10;99.90;;;13.82;92.61;97759.84;5233542;28;20206;-64
2022/08/22 03:25:26;;;;;;;8.60;7.90;;;13.00;99.90;;;13.85;92.85;97759.97;5234013;28;20680;-64
2022/08/22 03:28:06;;;;;;;8.00;7.30;;;13.00;99.90;;;13.90;92.52;97763.59;5238576;28;20208;-65
2022/08/22 03:30:46;;;;;;;7.95;7.22;;;13.10;99.90;;;13.89;92.50;97756.69;5237807;28;20806;-65
2022/08/22 03:33:25;;;;;;;7.43;6.72;;;13.10;99.90;;;13.82;92.42;97758.94;5232423;28;20702;-64
2022/08/22 03:36:06;;;;;;;7.90;7.30;;;13.00;99.90;;;13.88;91.93;97754.94;5229721;28;20201;-65
2022/08/22 03:38:54;;;;;;;8.07;7.38;;;13.00;99.90;;;13.91;91.84;97754.22;5236341;28;20670;-65
2022/08/22 03:41:50;;;;;;;8.15;7.32;;;13.00;99.90;;;13.86;92.18;97756.56;5230874;28;20197;-66
2022/08/22 03:45:17;;;;;;;8.05;7.45;;;13.00;99.90;;;13.85;91.70;97749.69;5231109;28;20224;-65
2022/08/22 03:48:34;;;;;;;8.00;7.30;;;13.10;99.90;;;13.85;92.53;97757.41;5235008;28;20201;-65
2022/08/22 03:51:31;;;;;;;8.88;8.18;;;13.00;99.90;;;13.81;91.73;97752.91;5239092;28;20204;-65
2022/08/22 03:54:37;;;;;;;8.98;8.07;;;13.00;99.90;;;13.86;90.67;97751.44;5232623;28;20763;-66
2022/08/22 03:58:04;;;;;;;8.80;7.55;;;13.00;99.90;;;13.71;91.99;97761.06;5236104;28;20258;-64
2022/08/22 04:01:15;;;;;;;8.18;7.47;;;13.00;99.90;;;13.68;91.80;97763.50;5233101;28;20219;-65
2022/08/22 04:04:47;;;;;;;8.00;7.38;;;12.90;99.90;;;13.66;92.16;97765.13;5228556;28;20639;-64
2022/08/22 04:07:47;;;;;;;8.65;7.93;;;12.90;99.90;;;13.65;92.02;97760.78;5225729;28;20194;-66
2022/08/22 04:11:13;;;;;;;8.45;7.70;;;12.90;99.90;;;13.64;91.23;97769.31;5231014;28;20661;-64
2022/08/22 04:14:07;;;;;;;8.48;7.78;;;12.90;99.90;;;13.56;91.19;97773.22;5228777;28;20335;-64
2022/08/22 04:17:28;;;;;;;8.52;7.63;;;12.80;99.90;;;13.54;92.75;97774.88;5235955;28;20204;-66
2022/08/22 04:20:58;;;;;;;8.20;7.32;;;12.80;99.90;;;13.56;93.06;97779.22;5230136;28;20205;-66
2022/08/22 04:24:31;;;;;;;8.70;7.75;;;12.80;99.90;;;13.52;93.29;97773.09;5212478;28;20342;-65
2022/08/22 04:27:12;;;;;;;8.15;7.35;;;12.70;99.90;;;13.56;93.45;97776.66;5230473;28;20204;-64
2022/08/22 04:29:54;;;;;;;9.20;8.38;;;12.80;99.90;;;13.53;93.60;97773.97;5231409;28;20300;-66
2022/08/22 04:32:35;;;;;;;9.07;8.27;;;12.70;99.90;;;13.46;93.43;97780.53;5224267;28;20290;-65
2022/08/22 04:35:16;;;;;;;8.02;7.35;;;12.70;99.90;;;13.47;93.32;97787.41;5234500;28;20212;-65
2022/08/22 04:37:57;;;;;;;8.55;7.82;;;12.70;99.90;;;13.51;93.71;97791.88;5225898;28;20208;-65
2022/08/22 04:40:37;;;;;;;8.93;8.02;;;12.70;99.90;;;13.55;94.14;97794.59;5228232;28;20215;-64
2022/08/22 04:43:17;;;;;;;9.23;8.45;;;12.70;99.90;;;13.48;93.15;97796.00;5233120;28;20228;-64
2022/08/22 04:45:57;;;;;;;9.20;8.40;;;12.70;99.90;;;13.51;93.10;97799.59;5230090;28;20250;-66
2022/08/22 04:48:36;;;;;;;8.65;7.75;;;12.70;99.90;;;13.48;93.24;97804.59;5231454;28;20269;-63
2022/08/22 04:51:18;;;;;;;8.88;7.97;;;12.60;99.90;;;13.54;92.29;97809.13;5229771;28;20669;-64
2022/08/22 04:54:18;;;;;;;8.82;8.13;;;12.70;99.90;;;13.49;91.97;97816.59;5230009;28;20274;-65
2022/08/22 04:57:23;;;;;;;8.25;7.65;;;12.70;99.90;;;13.48;92.98;97812.28;5228327;28;20201;-65
2022/08/22 05:00:00;;;;;;;9.15;8.25;;;12.60;99.90;;;13.47;94.20;97813.09;5232986;28;20240;-64
2022/08/22 05:02:38;;;;;;;9.13;8.32;;;12.70;99.90;;;13.54;94.27;97823.66;5236896;28;20684;-65
2022/08/22 05:05:20;;;;;;;9.32;8.43;;;12.80;99.90;;;13.64;93.38;97815.53;5234072;28;20211;-64
2022/08/22 05:07:59;;;;;;;8.95;8.20;;;12.90;99.90;;;13.64;93.33;97823.25;5230189;28;20197;-65
2022/08/22 05:10:38;;;;;;;9.73;8.82;;;12.90;99.90;;;13.73;93.14;97818.50;5235091;28;20211;-65
2022/08/22 05:13:20;;;;;;;8.63;7.93;;;13.00;99.90;;;13.84;93.28;97814.72;5229958;28;20232;-66
2022/08/22 05:16:02;;;;;;;8.93;8.02;;;13.10;99.90;;;13.91;92.28;97821.00;5236248;28;20271;-64
2022/08/22 05:18:45;;;;;;;8.70;7.80;;;13.20;99.90;;;13.96;92.85;97822.97;5234973;28;20204;-65
2022/08/22 05:21:25;;;;;;;9.18;8.48;;;13.20;99.90;;;14.05;93.34;97817.34;5237612;28;20217;-65
2022/08/22 05:24:05;;;;;;;10.05;9.10;;;13.30;99.90;;;14.22;92.10;97812.88;5237072;28;20267;-65
2022/08/22 05:26:46;;;;;;;9.77;8.55;;;13.50;99.90;;;14.51;92.22;97815.81;5235680;28;20559;-66
2022/08/22 05:29:25;;;;;;;9.38;8.48;;;13.70;99.90;;;14.94;90.59;97813.28;5230035;28;20212;-66
2022/08/22 05:32:04;;;;;;;9.02;8.23;;;14.00;99.90;;;15.42;88.01;97820.25;5240091;28;20485;-64
2022/08/22 05:34:42;;;;;;;8.80;7.90;;;14.30;99.90;;;15.95;85.75;97826.50;5237440;28;20320;-65
2022/08/22 05:37:21;;;;;;;7.90;7.30;;;14.60;99.90;;;16.33;82.41;97825.25;5227635;28;20224;-62
2022/08/22 05:39:59;;;;;;;8.07;7.30;;;14.90;99.90;;;16.69;79.58;97823.84;5234587;28;20648;-65
2022/08/22 05:42:36;;;;;;;8.02;7.40;;;15.30;99.90;;;16.94;77.90;97828.09;5237693;28;20205;-64
2022/08/22 05:45:13;;;;;;;7.97;7.15;;;15.50;99.90;;;17.06;76.80;97831.97;5235573;28;20250;-64
2022/08/22 05:47:52;;;;;;;8.00;7.30;;;15.80;99.90;;;17.40;75.69;97832.09;5230807;28;20200;-64
2022/08/22 05:50:36;;;;;;;7.55;6.95;;;16.20;99.90;;;17.76;74.11;97821.94;5230547;28;20323;-64
2022/08/22 05:53:15;;;;;;;7.43;6.82;;;16.60;99.90;;;18.22;72.01;97825.81;5232050;28;20227;-65
2022/08/22 05:55:59;;;;;;;8.75;8.00;;;17.10;99.90;;;18.51;69.64;97833.44;5234561;28;20247;-64
2022/08/22 05:58:51;;;;;;;7.28;6.68;;;17.20;99.90;;;18.87;68.70;97831.81;5238774;28;20208;-66
2022/08/22 06:01:32;;;;;;;7.25;6.65;;;17.30;99.90;;;19.30;68.69;97837.09;5239403;28;20208;-64
2022/08/22 06:04:14;;;;;;;7.50;6.88;;;17.60;99.90;;;19.21;66.58;97834.31;5235490;28;20216;-65
2022/08/22 06:06:56;;;;;;;7.18;6.55;;;17.50;99.90;;;19.54;66.15;97832.47;5237158;28;20644;-64
2022/08/22 06:09:35;;;;;;;7.63;6.30;;;17.70;99.90;;;19.53;66.12;97833.28;5236236;28;20320;-64
2022/08/22 06:12:15;;;;;;;7.75;7.05;;;17.70;99.90;;;20.09;64.70;97832.72;5236376;28;20209;-65
2022/08/22 06:15:04;;;;;;;7.18;6.60;;;18.10;99.90;;;20.29;64.23;97835.69;5234643;28;20222;-64
2022/08/22 06:17:49;;;;;;;7.65;6.05;;;18.10;99.90;;;20.04;63.71;97829.16;5233647;28;20591;-65
2022/08/22 06:20:36;;;;;;;7.13;6.57;;;18.20;99.90;;;20.54;62.55;97831.81;5233696;28;21305;-65
2022/08/22 06:23:24;;;;;;;7.90;6.68;;;18.50;99.90;;;20.55;62.74;97825.81;5240309;28;20294;-65
2022/08/22 06:26:02;;;;;;;7.22;6.63;;;18.70;99.90;;;21.24;60.95;97831.22;5238123;28;20197;-66
2022/08/22 06:28:40;;;;;;;7.13;6.40;;;19.10;99.90;;;21.48;59.50;97823.75;5234088;28;20242;-65
2022/08/22 06:31:33;;;;;;;7.32;6.68;;;19.20;99.90;;;21.71;58.61;97829.25;5236879;28;20212;-64
2022/08/22 06:34:14;;;;;;;7.13;6.47;;;19.70;99.90;;;22.01;58.35;97823.56;5237612;28;20684;-65
2022/08/22 06:36:51;;;;;;;6.95;6.35;;;19.80;99.90;;;21.98;57.89;97820.06;5235573;28;20201;-65
2022/08/22 06:39:31;;;;;;;6.80;6.15;;;20.00;99.90;;;22.20;58.57;97823.78;5236614;28;20238;-65
2022/08/22 06:42:10;;;;;;;6.97;6.28;;;20.20;99.90;;;22.51;56.15;97822.34;5239649;28;20652;-66
2022/08/22 06:44:55;;;;;;;6.45;5.95;;;20.20;99.90;;;22.97;55.97;97825.38;5239209;28;20716;-65
2022/08/22 06:47:33;;;;;;;6.47;5.85;;;20.70;99.90;;;22.17;57.03;97824.63;5237141;28;20240;-66
2022/08/22 06:50:13;;;;;;;6.90;6.30;;;20.20;99.90;;;22.75;57.21;97824.31;5242688;28;20204;-65
2022/08/22 06:52:53;;;;;;;6.72;6.10;;;20.50;99.90;;;22.93;55.28;97821.84;5240443;28;20224;-65
2022/08/22 06:55:30;;;;;;;6.30;5.75;;;21.00;99.90;;;23.03;55.67;97821.94;5238259;28;20676;-65
2022/08/22 06:58:13;;;;;;;7.13;6.43;;;21.20;99.90;;;23.21;53.88;97819.47;5239476;28;20200;-66
2022/08/22 07:00:54;;;;;;;6.15;5.63;;;21.50;99.90;;;23.52;53.27;97812.69;5237714;28;20699;-66
2022/08/22 07:03:52;;;;;;;6.30;5.70;;;21.60;99.90;;;23.87;52.48;97808.50;5236594;28;20232;-66
2022/08/22 07:06:32;;;;;;;7.03;6.35;;;21.90;99.70;;;24.04;51.51;97817.28;5239545;28;20638;-65
2022/08/22 07:09:07;;;;;;;6.63;6.00;;;22.00;99.40;;;23.87;51.53;97818.97;5239277;28;20684;-65
2022/08/22 07:11:43;;;;;;;6.75;5.97;;;22.00;98.50;;;24.17;50.58;97821.63;5240002;28;20587;-66
2022/08/22 07:14:28;;;;;;;6.30;5.80;;;22.00;98.40;;;24.30;50.95;97819.94;5240978;28;20966;-65
2022/08/22 07:17:07;;;;;;;6.50;5.85;;;22.30;97.80;;;24.43;50.48;97823.47;5236313;28;20246;-66
2022/08/22 07:19:49;;;;;;;6.20;5.70;;;22.20;98.70;;;24.65;50.62;97821.75;5234481;28;20204;-65
2022/08/22 07:22:31;;;;;;;6.15;5.63;;;22.20;98.50;;;25.18;49.95;97826.09;5237226;28;20208;-66
2022/08/22 07:25:10;;;;;;;6.00;5.47;;;22.70;98.50;;;25.44;48.07;97812.97;5241208;28;20200;-66
2022/08/22 07:28:04;;;;;;;5.70;5.30;;;23.10;97.00;;;25.80;47.76;97816.34;5237786;28;20204;-66
2022/08/22 07:30:54;;;;;;;5.72;5.30;;;23.00;98.20;;;26.09;47.21;97820.59;5231349;28;20731;-66
2022/08/22 07:33:42;;;;;;;5.70;5.18;;;23.20;96.80;;;26.33;46.76;97812.59;5232363;28;20282;-66
2022/08/22 07:36:28;;;;;;;6.00;5.50;;;23.40;97.50;;;26.77;46.07;97808.81;5239992;28;20196;-66
2022/08/22 07:39:20;;;;;;;5.82;5.30;;;23.90;96.30;;;26.94;45.39;97812.16;5235546;28;20200;-66
2022/08/22 07:42:06;;;;;;;6.18;5.57;;;24.20;96.10;;;27.39;46.04;97810.00;5238138;28;20231;-66
2022/08/22 07:45:00;;;;;;;6.18;5.57;;;24.50;96.40;;;26.63;45.66;97821.16;5238948;28;20259;-66
2022/08/22 07:47:52;;;;;;;6.30;5.70;;;24.20;95.00;;;26.58;47.13;97817.69;5238176;28;20778;-66
2022/08/22 07:50:32;;;;;;;6.10;5.70;;;24.50;95.30;;;26.42;48.00;97814.28;5235373;28;20296;-66
2022/08/22 07:53:17;;;;;;;5.78;5.32;;;24.50;95.40;;;26.55;47.88;97820.34;5240360;28;20634;-66
2022/08/22 07:55:52;;;;;;;6.07;5.57;;;24.50;95.50;;;26.41;47.51;97820.38;5238239;28;20295;-66
2022/08/22 07:58:28;;;;;;;6.32;5.72;;;24.80;94.60;;;26.38;46.99;97820.41;5242746;28;20227;-66
2022/08/22 08:01:02;;;;;;;6.70;6.10;;;25.10;93.50;;;26.26;48.04;97817.00;5241065;28;20246;-66
2022/08/22 08:03:36;;;;;;;7.15;6.50;;;24.90;94.00;;;26.24;47.65;97823.13;5230039;28;20243;-66
2022/08/22 08:06:09;;;;;;;6.68;6.20;;;25.00;93.50;;;26.53;48.21;97820.38;5237637;28;20323;-66
2022/08/22 08:08:45;;;;;;;6.05;5.55;;;25.30;94.20;;;26.82;46.84;97824.50;5235350;28;20208;-66
2022/08/22 08:11:20;;;;;;;6.85;6.20;;;25.50;93.50;;;27.07;46.77;97825.16;5232356;28;20220;-65
2022/08/22 08:13:59;;;;;;;6.68;6.10;;;25.60;93.30;;;26.50;46.24;97820.38;5238496;28;20320;-65
2022/08/22 08:16:42;;;;;;;7.15;6.60;;;25.50;92.60;;;26.66;46.74;97815.88;5229069;28;20255;-65
2022/08/22 08:19:17;;;;;;;7.20;6.60;;;25.40;93.10;;;26.60;47.28;97821.19;5225569;28;20287;-65
2022/08/22 08:21:54;;;;;;;6.82;6.32;;;25.50;92.90;;;26.76;48.80;97819.31;5231846;28;20334;-65
2022/08/22 08:24:32;;;;;;;7.43;6.72;;;25.70;93.90;;;26.85;47.12;97830.59;5236761;28;20243;-65
2022/08/22 08:30:17;;;;;;;6.28;5.88;;;26.10;92.60;;;27.32;47.36;97825.81;5232009;28;20699;-65
2022/08/22 08:32:56;;;;;;;6.15;5.65;;;26.40;92.70;;;27.57;45.23;97823.81;5231319;28;20256;-65
2022/08/22 08:35:55;;;;;;;6.75;5.72;;;26.70;91.50;;;27.63;46.61;97823.72;5230243;28;20231;-65
2022/08/22 08:38:43;;;;;;;6.75;6.25;;;26.90;91.60;;;27.90;44.39;97816.41;5233332;28;20653;-66
2022/08/22 08:42:18;;;;;;;6.43;5.93;;;27.00;90.60;;;27.74;44.61;97823.59;5232210;28;20687;-66
2022/08/22 08:45:19;;;;;;;6.68;6.07;;;26.80;90.60;;;27.72;45.84;97823.63;5234556;28;20331;-66
2022/08/22 08:48:28;;;;;;;5.50;5.13;;;26.70;91.80;;;27.87;45.00;97826.97;5235418;28;20231;-66
2022/08/22 08:51:41;;;;;;;6.22;5.82;;;27.10;90.80;;;27.95;44.17;97819.88;5235912;28;20259;-65
2022/08/22 08:54:35;;;;;;;6.18;5.60;;;27.20;90.30;;;28.07;45.06;97809.19;5227265;28;20224;-65
2022/08/22 08:57:19;;;;;;;5.70;5.30;;;27.30;90.50;;;27.98;43.66;97814.56;5229217;28;20672;-65
2022/08/22 09:00:10;;;;;;;5.60;5.10;;;27.40;88.90;;;28.01;44.08;97817.16;5231152;28;20273;-65
2022/08/22 09:03:08;;;;;;;6.38;5.78;;;27.20;88.70;;;28.24;42.89;97828.25;5231417;28;20246;-66
2022/08/22 09:06:05;;;;;;;5.88;5.40;;;27.70;86.90;;;27.90;43.98;97816.41;5231315;28;20192;-65
2022/08/22 09:09:09;;;;;;;6.10;5.55;;;27.30;89.00;;;27.87;42.24;97811.22;5227046;28;20276;-65
2022/08/22 09:12:39;;;;;;;6.10;5.70;;;27.00;87.40;;;27.81;44.01;97813.03;5227444;28;20224;-66
2022/08/22 09:15:52;;;;;;;5.72;5.22;;;27.10;87.80;;;27.95;42.60;97810.22;5233710;28;20221;-65
2022/08/22 09:19:27;;;;;;;5.50;5.00;;;27.10;86.70;;;27.40;42.19;97819.59;5233398;28;20196;-65
2022/08/22 09:22:46;;;;;;;5.05;4.55;;;27.20;82.90;;;27.83;42.11;97806.00;5231975;28;20560;-65
2022/08/22 09:25:45;;;;;;;5.05;4.55;;;27.10;85.00;;;28.30;39.93;97814.13;5206907;28;20231;-66
2022/08/22 09:28:28;;;;;;;5.00;4.60;;;27.80;81.90;;;28.29;38.93;97815.88;5230324;28;20667;-65
2022/08/22 09:31:28;;;;;;;5.65;4.45;;;27.80;80.00;;;28.06;39.98;97803.06;5237627;28;20278;-66
2022/08/22 09:34:29;;;;;;;4.88;4.47;;;27.50;81.20;;;27.80;39.29;97800.78;5229623;28;20246;-65
2022/08/22 09:37:19;;;;;;;5.22;4.72;;;27.30;80.30;;;28.05;39.90;97803.09;5240919;28;20211;-66
2022/08/22 09:40:02;;;;;;;4.85;4.45;;;27.30;81.40;;;27.99;40.42;97809.31;5236240;28;20204;-65
2022/08/22 09:42:47;;;;;;;4.97;4.57;;;27.30;81.60;;;27.72;40.54;97810.47;5230564;28;20193;-66
2022/08/22 09:45:44;;;;;;;5.18;4.55;;;26.90;81.10;;;27.40;40.89;97803.84;5236432;28;20187;-65
2022/08/22 09:48:38;;;;;;;5.13;4.68;;;26.50;82.40;;;27.25;41.40;97806.63;5228453;28;20221;-66
2022/08/22 09:51:33;;;;;;;5.07;4.70;;;26.40;83.10;;;27.08;40.63;97798.91;5227948;28;20223;-66
2022/08/22 09:54:27;;;;;;;4.72;4.28;;;26.40;81.40;;;27.57;41.41;97800.16;5227158;22;20584;-66
2022/08/22 09:57:21;;;;;;;4.72;4.35;;;26.90;82.80;;;28.01;40.06;97809.25;5224725;28;20208;-66
2022/08/22 10:00:19;;;;;;;4.70;4.30;;;27.40;80.40;;;27.89;38.92;97806.81;5222759;28;20193;-66
2022/08/22 10:03:06;;;;;;;4.57;4.18;;;27.20;79.10;;;27.97;39.43;97804.97;5221643;28;20216;-66
2022/08/22 10:05:46;;;;;;;4.82;4.45;;;27.20;80.20;;;27.98;39.22;97810.19;5224474;28;20205;-66
2022/08/22 10:08:42;;;;;;;4.60;4.30;;;27.20;79.70;;;28.01;38.27;97804.88;5223345;28;20615;-66
2022/08/22 10:11:26;;;;;;;5.15;4.80;;;27.20;78.30;;;27.89;39.27;97809.44;5221910;28;20197;-66
2022/08/22 10:14:04;;;;;;;4.70;4.30;;;27.10;79.30;;;28.02;38.47;97805.78;5223538;28;20311;-66
2022/08/22 10:17:03;;;;;;;4.55;4.10;;;27.20;78.50;;;28.18;39.83;97809.91;5219613;28;20299;-66
2022/08/22 10:19:44;;;;;;;4.82;4.38;;;27.40;80.00;;;28.41;39.15;97808.69;5220740;28;20559;-66
2022/08/22 10:22:39;;;;;;;4.72;4.43;;;27.80;79.30;;;28.56;37.38;97803.25;5223460;28;20296;-66
2022/08/22 10:25:33;;;;;;;4.95;4.55;;;28.00;76.40;;;28.54;36.75;97805.03;5222317;28;20769;-66
2022/08/22 10:28:16;;;;;;;4.95;4.65;;;28.00;75.70;;;28.69;37.96;97807.41;5224916;28;20204;-66
2022/08/22 10:31:18;;;;;;;4.93;4.40;;;28.10;77.20;;;28.81;36.64;97793.19;5225050;28;20295;-66
2022/08/22 10:34:03;;;;;;;4.47;4.18;;;28.20;75.30;;;28.74;37.96;97791.56;5223728;28;20313;-66
2022/08/22 10:36:48;;;;;;;4.75;4.35;;;28.00;76.80;;;28.80;38.14;97790.59;5225074;28;20266;-66
2022/08/22 10:39:28;;;;;;;4.82;4.43;;;28.10;77.00;;;29.09;37.20;97790.97;5220483;28;20506;-66
2022/08/22 10:42:24;;;;;;;4.70;4.30;;;28.30;75.40;;;28.90;37.69;97787.78;5222868;28;20669;-66
2022/08/22 10:45:21;;;;;;;5.22;4.72;;;28.20;76.20;;;28.83;38.33;97787.91;5223332;28;20200;-66
2022/08/22 10:48:43;;;;;;;5.03;4.28;;;27.90;77.70;;;29.11;36.38;97781.28;5224546;28;20721;-66
2022/08/22 10:51:35;;;;;;;4.70;4.40;;;28.30;75.50;;;29.32;36.60;97784.41;5218853;28;20291;-66
2022/08/22 10:54:28;;;;;;;4.75;4.35;;;28.60;74.60;;;29.24;35.25;97781.06;5223988;28;20323;-66
2022/08/22 10:57:27;;;;;;;4.85;4.30;;;28.40;73.00;;;28.82;35.03;97778.28;5224499;28;20258;-66
2022/08/22 11:00:13;;;;;;;4.50;4.10;;;27.80;72.50;;;28.77;35.90;97780.13;5224675;28;20228;-66
2022/08/22 11:02:54;;;;;;;4.85;4.45;;;27.70;73.60;;;28.82;35.82;97775.66;5222429;28;20279;-66
2022/08/22 11:05:37;;;;;;;4.55;4.22;;;27.80;73.70;;;28.85;35.56;97768.56;5224504;28;20665;-66
2022/08/22 11:08:48;;;;;;;4.63;4.13;;;27.90;73.60;;;29.02;34.58;97765.63;5223804;28;20224;-66
2022/08/22 11:11:41;;;;;;;5.18;4.70;;;28.10;71.70;;;28.47;36.22;97761.28;5223308;28;20295;-66
2022/08/22 11:14:44;;;;;;;4.78;4.35;;;27.60;73.90;;;28.30;36.79;97753.63;5222859;28;20332;-66
2022/08/22 11:17:34;;;;;;;4.30;3.97;;;27.30;75.00;;;28.32;37.94;97761.53;5221557;28;20280;-66
2022/08/22 11:20:22;;;;;;;4.70;4.35;;;27.30;75.70;;;28.13;37.55;97761.81;5223686;28;20291;-66
2022/08/22 11:23:19;;;;;;;4.63;4.25;;;27.20;75.70;;;28.07;38.28;97760.13;5222311;28;20248;-66
2022/08/22 11:26:02;;;;;;;4.10;3.80;;;27.10;77.00;;;28.05;37.75;97758.41;5224258;28;20224;-66
2022/08/22 11:29:25;;;;;;;4.45;4.05;;;27.10;76.70;;;27.80;39.06;97753.50;5223042;28;20680;-66
2022/08/22 11:32:07;;;;;;;4.35;4.03;;;26.80;78.10;;;27.81;38.96;97749.09;5218670;28;20291;-66
2022/08/22 11:34:56;;;;;;;4.63;4.22;;;26.70;77.60;;;27.66;40.65;97738.78;5222754;28;20736;-66
2022/08/22 11:37:47;;;;;;;4.78;4.38;;;26.60;80.40;;;27.76;39.18;97745.66;5223439;28;20225;-66
2022/08/22 11:40:36;;;;;;;4.65;4.25;;;26.70;77.90;;;27.95;38.71;97746.28;5218315;28;20201;-66
2022/08/22 11:43:40;;;;;;;4.40;4.00;;;26.90;77.40;;;28.23;37.59;97742.34;5220601;28;20247;-66
2022/08/22 11:46:29;;;;;;;4.68;4.28;;;27.30;77.60;;;28.61;36.43;97737.41;5217519;28;20619;-66
2022/08/22 11:49:39;;;;;;;4.20;3.90;;;27.80;73.20;;;28.25;36.27;97731.84;5221266;28;20265;-66
2022/08/22 11:52:29;;;;;;;4.35;4.05;;;27.60;72.60;;;28.49;35.52;97733.22;5217619;28;20509;-66
2022/08/22 11:55:24;;;;;;;5.80;4.50;;;27.80;71.60;;;28.30;35.91;97732.59;5223046;28;20231;-66
2022/08/22 11:58:25;;;;;;;4.72;4.32;;;27.60;73.00;;;28.18;36.38;97723.16;5222761;28;20493;-66
2022/08/22 12:01:09;;;;;;;4.45;4.05;;;27.50;72.70;;;28.47;35.47;97729.75;5222718;28;20196;-66
2022/08/22 12:04:13;;;;;;;4.15;3.95;;;27.80;71.60;;;28.30;35.94;97724.72;5223057;28;20240;-66